sensor_id;sensor_type;location;lat;lon;timestamp;P1;durP1;ratioP1;P2;durP2;ratioP2
19358;SDS011;9815;52.334;20.890;2022-12-18T00:00:05;48.77;;;20.27;;
19358;SDS011;9815;52.334;20.890;2022-12-18T00:02:38;50.27;;;19.63;;
19358;SDS011;9815;52.334;20.890;2022-12-18T00:05:07;44.97;;;19.17;;
19358;SDS011;9815;52.334;20.890;2022-12-18T00:07:35;53.40;;;20.63;;
19358;SDS011;9815;52.334;20.890;2022-12-18T00:10:04;47.43;;;19.07;;
19358;SDS011;9815;52.334;20.890;2022-12-18T00:12:33;55.47;;;20.63;;
19358;SDS011;9815;52.334;20.890;2022-12-18T00:15:01;51.27;;;18.77;;
19358;SDS011;9815;52.334;20.890;2022-12-18T00:17:31;52.53;;;20.03;;
19358;SDS011;9815;52.334;20.890;2022-12-18T00:19:59;50.87;;;19.97;;
19358;SDS011;9815;52.334;20.890;2022-12-18T00:22:27;47.70;;;20.67;;
19358;SDS011;9815;52.334;20.890;2022-12-18T00:24:56;47.00;;;20.53;;
19358;SDS011;9815;52.334;20.890;2022-12-18T00:27:24;94.17;;;33.50;;
19358;SDS011;9815;52.334;20.890;2022-12-18T00:29:52;56.27;;;21.53;;
19358;SDS011;9815;52.334;20.890;2022-12-18T00:32:20;49.97;;;19.53;;
19358;SDS011;9815;52.334;20.890;2022-12-18T00:34:49;55.13;;;22.70;;
19358;SDS011;9815;52.334;20.890;2022-12-18T00:37:17;58.87;;;24.00;;
19358;SDS011;9815;52.334;20.890;2022-12-18T00:39:49;43.57;;;17.57;;
19358;SDS011;9815;52.334;20.890;2022-12-18T00:42:18;45.33;;;19.10;;
19358;SDS011;9815;52.334;20.890;2022-12-18T00:45:04;46.20;;;18.00;;
19358;SDS011;9815;52.334;20.890;2022-12-18T00:47:38;42.80;;;18.33;;
19358;SDS011;9815;52.334;20.890;2022-12-18T00:50:09;50.80;;;17.47;;
19358;SDS011;9815;52.334;20.890;2022-12-18T00:52:37;35.47;;;17.27;;
19358;SDS011;9815;52.334;20.890;2022-12-18T00:55:07;41.93;;;16.93;;
19358;SDS011;9815;52.334;20.890;2022-12-18T00:57:35;42.73;;;17.03;;
19358;SDS011;9815;52.334;20.890;2022-12-18T01:00:06;45.30;;;17.10;;
19358;SDS011;9815;52.334;20.890;2022-12-18T01:02:36;42.07;;;16.80;;
19358;SDS011;9815;52.334;20.890;2022-12-18T01:05:06;47.33;;;18.47;;
19358;SDS011;9815;52.334;20.890;2022-12-18T01:07:37;37.10;;;17.07;;
19358;SDS011;9815;52.334;20.890;2022-12-18T01:10:05;43.23;;;17.40;;
19358;SDS011;9815;52.334;20.890;2022-12-18T01:12:35;44.17;;;16.87;;
19358;SDS011;9815;52.334;20.890;2022-12-18T01:15:03;41.57;;;17.50;;
19358;SDS011;9815;52.334;20.890;2022-12-18T01:17:33;37.43;;;16.03;;
19358;SDS011;9815;52.334;20.890;2022-12-18T01:20:02;42.13;;;17.47;;
19358;SDS011;9815;52.334;20.890;2022-12-18T01:22:33;41.07;;;16.93;;
19358;SDS011;9815;52.334;20.890;2022-12-18T01:25:01;45.43;;;16.70;;
19358;SDS011;9815;52.334;20.890;2022-12-18T01:27:30;37.60;;;15.53;;
19358;SDS011;9815;52.334;20.890;2022-12-18T01:29:58;40.87;;;16.63;;
19358;SDS011;9815;52.334;20.890;2022-12-18T01:32:28;36.13;;;15.43;;
19358;SDS011;9815;52.334;20.890;2022-12-18T01:34:57;41.17;;;16.93;;
19358;SDS011;9815;52.334;20.890;2022-12-18T01:37:26;40.87;;;16.37;;
19358;SDS011;9815;52.334;20.890;2022-12-18T01:39:55;39.33;;;16.13;;
19358;SDS011;9815;52.334;20.890;2022-12-18T01:42:24;45.37;;;18.13;;
19358;SDS011;9815;52.334;20.890;2022-12-18T01:47:33;49.73;;;17.17;;
19358;SDS011;9815;52.334;20.890;2022-12-18T01:50:05;37.40;;;15.60;;
19358;SDS011;9815;52.334;20.890;2022-12-18T01:52:36;40.80;;;16.00;;
19358;SDS011;9815;52.334;20.890;2022-12-18T01:55:11;37.97;;;15.50;;
19358;SDS011;9815;52.334;20.890;2022-12-18T01:57:41;37.63;;;14.87;;
19358;SDS011;9815;52.334;20.890;2022-12-18T02:00:11;38.27;;;14.53;;
19358;SDS011;9815;52.334;20.890;2022-12-18T02:02:43;30.80;;;13.40;;
19358;SDS011;9815;52.334;20.890;2022-12-18T02:05:13;35.87;;;14.17;;
19358;SDS011;9815;52.334;20.890;2022-12-18T02:07:49;44.80;;;14.63;;
19358;SDS011;9815;52.334;20.890;2022-12-18T02:10:29;32.83;;;13.27;;
19358;SDS011;9815;52.334;20.890;2022-12-18T02:13:08;29.17;;;13.47;;
19358;SDS011;9815;52.334;20.890;2022-12-18T02:15:43;33.63;;;14.40;;
19358;SDS011;9815;52.334;20.890;2022-12-18T02:18:18;31.73;;;14.37;;
19358;SDS011;9815;52.334;20.890;2022-12-18T02:20:49;33.33;;;13.63;;
19358;SDS011;9815;52.334;20.890;2022-12-18T02:23:24;35.50;;;14.53;;
19358;SDS011;9815;52.334;20.890;2022-12-18T02:26:09;30.03;;;13.27;;
19358;SDS011;9815;52.334;20.890;2022-12-18T02:28:44;28.47;;;11.90;;
19358;SDS011;9815;52.334;20.890;2022-12-18T02:31:16;34.90;;;14.20;;
19358;SDS011;9815;52.334;20.890;2022-12-18T02:33:48;35.40;;;14.50;;
19358;SDS011;9815;52.334;20.890;2022-12-18T02:36:18;32.80;;;13.90;;
19358;SDS011;9815;52.334;20.890;2022-12-18T02:38:49;30.67;;;14.07;;
19358;SDS011;9815;52.334;20.890;2022-12-18T02:41:25;33.40;;;13.63;;
19358;SDS011;9815;52.334;20.890;2022-12-18T02:43:55;34.77;;;13.90;;
19358;SDS011;9815;52.334;20.890;2022-12-18T02:46:29;41.20;;;14.43;;
19358;SDS011;9815;52.334;20.890;2022-12-18T02:49:06;32.80;;;14.03;;
19358;SDS011;9815;52.334;20.890;2022-12-18T02:51:45;32.23;;;13.60;;
19358;SDS011;9815;52.334;20.890;2022-12-18T02:54:22;35.10;;;13.23;;
19358;SDS011;9815;52.334;20.890;2022-12-18T02:57:03;32.83;;;13.23;;
19358;SDS011;9815;52.334;20.890;2022-12-18T02:59:41;29.40;;;11.90;;
19358;SDS011;9815;52.334;20.890;2022-12-18T03:02:18;34.43;;;13.97;;
19358;SDS011;9815;52.334;20.890;2022-12-18T03:04:51;27.87;;;12.97;;
19358;SDS011;9815;52.334;20.890;2022-12-18T03:07:26;28.97;;;12.27;;
19358;SDS011;9815;52.334;20.890;2022-12-18T03:10:02;34.53;;;13.60;;
19358;SDS011;9815;52.334;20.890;2022-12-18T03:12:34;37.60;;;13.43;;
19358;SDS011;9815;52.334;20.890;2022-12-18T03:15:08;29.40;;;13.47;;
19358;SDS011;9815;52.334;20.890;2022-12-18T03:17:46;30.00;;;12.33;;
19358;SDS011;9815;52.334;20.890;2022-12-18T03:20:25;35.90;;;12.70;;
19358;SDS011;9815;52.334;20.890;2022-12-18T03:22:57;34.13;;;12.93;;
19358;SDS011;9815;52.334;20.890;2022-12-18T03:25:31;28.97;;;12.33;;
19358;SDS011;9815;52.334;20.890;2022-12-18T03:28:02;29.47;;;13.80;;
19358;SDS011;9815;52.334;20.890;2022-12-18T03:30:35;35.80;;;13.53;;
19358;SDS011;9815;52.334;20.890;2022-12-18T03:33:08;33.07;;;13.60;;
19358;SDS011;9815;52.334;20.890;2022-12-18T03:35:45;28.30;;;14.10;;
19358;SDS011;9815;52.334;20.890;2022-12-18T03:38:16;35.90;;;13.47;;
19358;SDS011;9815;52.334;20.890;2022-12-18T03:40:50;35.00;;;14.37;;
19358;SDS011;9815;52.334;20.890;2022-12-18T03:43:29;34.73;;;12.97;;
19358;SDS011;9815;52.334;20.890;2022-12-18T03:46:07;27.93;;;12.63;;
19358;SDS011;9815;52.334;20.890;2022-12-18T03:48:44;33.40;;;12.00;;
19358;SDS011;9815;52.334;20.890;2022-12-18T03:51:22;30.63;;;11.37;;
19358;SDS011;9815;52.334;20.890;2022-12-18T03:53:55;26.33;;;11.80;;
19358;SDS011;9815;52.334;20.890;2022-12-18T03:56:31;24.27;;;11.47;;
19358;SDS011;9815;52.334;20.890;2022-12-18T03:59:06;30.20;;;12.63;;
19358;SDS011;9815;52.334;20.890;2022-12-18T04:01:38;28.03;;;12.27;;
19358;SDS011;9815;52.334;20.890;2022-12-18T04:04:11;35.13;;;13.97;;
19358;SDS011;9815;52.334;20.890;2022-12-18T04:06:42;35.50;;;12.37;;
19358;SDS011;9815;52.334;20.890;2022-12-18T04:09:13;30.43;;;12.13;;
19358;SDS011;9815;52.334;20.890;2022-12-18T04:11:45;33.50;;;13.60;;
19358;SDS011;9815;52.334;20.890;2022-12-18T04:14:16;27.77;;;12.20;;
19358;SDS011;9815;52.334;20.890;2022-12-18T04:16:49;28.43;;;11.30;;
19358;SDS011;9815;52.334;20.890;2022-12-18T04:19:22;30.47;;;12.77;;
19358;SDS011;9815;52.334;20.890;2022-12-18T04:21:52;28.77;;;11.83;;
19358;SDS011;9815;52.334;20.890;2022-12-18T04:24:20;24.17;;;11.20;;
19358;SDS011;9815;52.334;20.890;2022-12-18T04:27:01;30.63;;;11.20;;
19358;SDS011;9815;52.334;20.890;2022-12-18T04:29:39;29.97;;;12.67;;
19358;SDS011;9815;52.334;20.890;2022-12-18T04:32:07;26.67;;;12.30;;
19358;SDS011;9815;52.334;20.890;2022-12-18T04:34:36;33.23;;;12.57;;
19358;SDS011;9815;52.334;20.890;2022-12-18T04:37:05;31.63;;;13.87;;
19358;SDS011;9815;52.334;20.890;2022-12-18T04:39:33;36.17;;;14.03;;
19358;SDS011;9815;52.334;20.890;2022-12-18T04:42:07;32.10;;;13.70;;
19358;SDS011;9815;52.334;20.890;2022-12-18T04:44:35;33.73;;;12.20;;
19358;SDS011;9815;52.334;20.890;2022-12-18T04:47:05;28.50;;;13.07;;
19358;SDS011;9815;52.334;20.890;2022-12-18T04:49:33;31.73;;;13.43;;
19358;SDS011;9815;52.334;20.890;2022-12-18T04:52:01;26.60;;;12.47;;
19358;SDS011;9815;52.334;20.890;2022-12-18T04:54:32;31.53;;;12.13;;
19358;SDS011;9815;52.334;20.890;2022-12-18T04:57:01;30.33;;;12.70;;
19358;SDS011;9815;52.334;20.890;2022-12-18T04:59:29;32.43;;;13.20;;
19358;SDS011;9815;52.334;20.890;2022-12-18T05:01:57;36.73;;;13.73;;
19358;SDS011;9815;52.334;20.890;2022-12-18T05:04:27;30.63;;;13.17;;
19358;SDS011;9815;52.334;20.890;2022-12-18T05:06:55;28.07;;;12.73;;
19358;SDS011;9815;52.334;20.890;2022-12-18T05:09:23;36.70;;;14.27;;
19358;SDS011;9815;52.334;20.890;2022-12-18T05:11:51;34.63;;;13.23;;
19358;SDS011;9815;52.334;20.890;2022-12-18T05:14:20;31.93;;;12.57;;
19358;SDS011;9815;52.334;20.890;2022-12-18T05:16:48;29.57;;;11.93;;
19358;SDS011;9815;52.334;20.890;2022-12-18T05:19:16;27.73;;;11.97;;
19358;SDS011;9815;52.334;20.890;2022-12-18T05:21:46;31.20;;;13.13;;
19358;SDS011;9815;52.334;20.890;2022-12-18T05:24:14;32.60;;;13.13;;
19358;SDS011;9815;52.334;20.890;2022-12-18T05:26:42;37.10;;;14.23;;
19358;SDS011;9815;52.334;20.890;2022-12-18T05:29:10;40.97;;;14.57;;
19358;SDS011;9815;52.334;20.890;2022-12-18T05:31:39;36.83;;;14.03;;
19358;SDS011;9815;52.334;20.890;2022-12-18T05:34:08;35.13;;;13.97;;
19358;SDS011;9815;52.334;20.890;2022-12-18T05:36:38;38.10;;;16.13;;
19358;SDS011;9815;52.334;20.890;2022-12-18T05:39:07;42.17;;;16.87;;
19358;SDS011;9815;52.334;20.890;2022-12-18T05:41:35;47.40;;;16.87;;
19358;SDS011;9815;52.334;20.890;2022-12-18T05:44:04;45.13;;;17.00;;
19358;SDS011;9815;52.334;20.890;2022-12-18T05:46:32;46.70;;;15.30;;
19358;SDS011;9815;52.334;20.890;2022-12-18T05:49:00;42.57;;;16.70;;
19358;SDS011;9815;52.334;20.890;2022-12-18T05:51:28;43.63;;;16.57;;
19358;SDS011;9815;52.334;20.890;2022-12-18T05:53:57;43.47;;;16.53;;
19358;SDS011;9815;52.334;20.890;2022-12-18T05:56:27;45.67;;;17.67;;
19358;SDS011;9815;52.334;20.890;2022-12-18T05:58:55;44.97;;;16.67;;
19358;SDS011;9815;52.334;20.890;2022-12-18T06:01:24;55.23;;;19.07;;
19358;SDS011;9815;52.334;20.890;2022-12-18T06:03:53;57.50;;;18.93;;
19358;SDS011;9815;52.334;20.890;2022-12-18T06:06:23;56.50;;;19.40;;
19358;SDS011;9815;52.334;20.890;2022-12-18T06:08:53;60.63;;;21.43;;
19358;SDS011;9815;52.334;20.890;2022-12-18T06:11:22;65.83;;;21.80;;
19358;SDS011;9815;52.334;20.890;2022-12-18T06:13:53;72.33;;;22.37;;
19358;SDS011;9815;52.334;20.890;2022-12-18T06:16:24;56.63;;;20.77;;
19358;SDS011;9815;52.334;20.890;2022-12-18T06:18:53;61.67;;;20.60;;
19358;SDS011;9815;52.334;20.890;2022-12-18T06:21:23;64.20;;;20.43;;
19358;SDS011;9815;52.334;20.890;2022-12-18T06:23:51;58.43;;;20.33;;
19358;SDS011;9815;52.334;20.890;2022-12-18T06:26:19;61.80;;;21.43;;
19358;SDS011;9815;52.334;20.890;2022-12-18T06:28:54;67.97;;;20.63;;
19358;SDS011;9815;52.334;20.890;2022-12-18T06:31:23;58.90;;;19.27;;
19358;SDS011;9815;52.334;20.890;2022-12-18T06:33:52;55.07;;;19.97;;
19358;SDS011;9815;52.334;20.890;2022-12-18T06:36:20;65.27;;;21.40;;
19358;SDS011;9815;52.334;20.890;2022-12-18T06:38:49;60.90;;;19.33;;
19358;SDS011;9815;52.334;20.890;2022-12-18T06:41:18;63.67;;;20.23;;
19358;SDS011;9815;52.334;20.890;2022-12-18T06:43:47;65.17;;;20.97;;
19358;SDS011;9815;52.334;20.890;2022-12-18T06:46:17;60.77;;;20.33;;
19358;SDS011;9815;52.334;20.890;2022-12-18T06:48:46;61.93;;;20.37;;
19358;SDS011;9815;52.334;20.890;2022-12-18T06:51:19;66.13;;;21.63;;
19358;SDS011;9815;52.334;20.890;2022-12-18T06:53:48;76.07;;;26.50;;
19358;SDS011;9815;52.334;20.890;2022-12-18T06:56:17;82.87;;;27.70;;
19358;SDS011;9815;52.334;20.890;2022-12-18T06:58:45;72.70;;;24.67;;
19358;SDS011;9815;52.334;20.890;2022-12-18T07:01:13;70.40;;;21.17;;
19358;SDS011;9815;52.334;20.890;2022-12-18T07:03:43;63.53;;;20.17;;
19358;SDS011;9815;52.334;20.890;2022-12-18T07:06:15;66.37;;;20.30;;
19358;SDS011;9815;52.334;20.890;2022-12-18T07:08:45;65.93;;;20.43;;
19358;SDS011;9815;52.334;20.890;2022-12-18T07:11:13;58.63;;;20.10;;
19358;SDS011;9815;52.334;20.890;2022-12-18T07:13:42;61.27;;;21.77;;
19358;SDS011;9815;52.334;20.890;2022-12-18T07:16:12;73.10;;;21.83;;
19358;SDS011;9815;52.334;20.890;2022-12-18T07:18:50;63.73;;;21.57;;
19358;SDS011;9815;52.334;20.890;2022-12-18T07:21:19;61.47;;;20.57;;
19358;SDS011;9815;52.334;20.890;2022-12-18T07:23:48;63.23;;;20.93;;
19358;SDS011;9815;52.334;20.890;2022-12-18T07:26:16;68.07;;;21.47;;
19358;SDS011;9815;52.334;20.890;2022-12-18T07:28:46;62.10;;;19.20;;
19358;SDS011;9815;52.334;20.890;2022-12-18T07:31:15;57.80;;;19.80;;
19358;SDS011;9815;52.334;20.890;2022-12-18T07:33:47;62.30;;;20.67;;
19358;SDS011;9815;52.334;20.890;2022-12-18T07:36:17;67.87;;;22.57;;
19358;SDS011;9815;52.334;20.890;2022-12-18T07:38:46;59.53;;;20.70;;
19358;SDS011;9815;52.334;20.890;2022-12-18T07:41:15;70.60;;;21.97;;
19358;SDS011;9815;52.334;20.890;2022-12-18T07:43:46;63.40;;;21.73;;
19358;SDS011;9815;52.334;20.890;2022-12-18T07:46:15;68.17;;;22.60;;
19358;SDS011;9815;52.334;20.890;2022-12-18T07:48:44;70.80;;;22.60;;
19358;SDS011;9815;52.334;20.890;2022-12-18T07:51:17;67.10;;;23.97;;
19358;SDS011;9815;52.334;20.890;2022-12-18T07:53:46;62.27;;;22.03;;
19358;SDS011;9815;52.334;20.890;2022-12-18T07:56:18;65.93;;;21.37;;
19358;SDS011;9815;52.334;20.890;2022-12-18T07:58:54;75.50;;;22.93;;
19358;SDS011;9815;52.334;20.890;2022-12-18T08:01:22;61.90;;;21.17;;
19358;SDS011;9815;52.334;20.890;2022-12-18T08:03:51;68.60;;;21.50;;
19358;SDS011;9815;52.334;20.890;2022-12-18T08:06:21;69.50;;;22.43;;
19358;SDS011;9815;52.334;20.890;2022-12-18T08:08:50;62.57;;;22.93;;
19358;SDS011;9815;52.334;20.890;2022-12-18T08:11:20;56.27;;;21.80;;
19358;SDS011;9815;52.334;20.890;2022-12-18T08:13:48;61.37;;;22.27;;
19358;SDS011;9815;52.334;20.890;2022-12-18T08:16:17;66.13;;;21.67;;
19358;SDS011;9815;52.334;20.890;2022-12-18T08:18:46;54.37;;;20.00;;
19358;SDS011;9815;52.334;20.890;2022-12-18T08:21:16;55.37;;;19.00;;
19358;SDS011;9815;52.334;20.890;2022-12-18T08:23:48;62.07;;;19.33;;
19358;SDS011;9815;52.334;20.890;2022-12-18T08:26:18;63.97;;;21.13;;
19358;SDS011;9815;52.334;20.890;2022-12-18T08:28:47;52.73;;;20.20;;
19358;SDS011;9815;52.334;20.890;2022-12-18T08:31:16;60.60;;;20.90;;
19358;SDS011;9815;52.334;20.890;2022-12-18T08:33:47;70.20;;;23.97;;
19358;SDS011;9815;52.334;20.890;2022-12-18T08:36:16;63.70;;;21.67;;
19358;SDS011;9815;52.334;20.890;2022-12-18T08:38:45;65.70;;;22.50;;
19358;SDS011;9815;52.334;20.890;2022-12-18T08:41:15;61.47;;;20.23;;
19358;SDS011;9815;52.334;20.890;2022-12-18T08:43:44;57.93;;;22.00;;
19358;SDS011;9815;52.334;20.890;2022-12-18T08:46:34;53.77;;;19.53;;
19358;SDS011;9815;52.334;20.890;2022-12-18T08:49:04;60.73;;;19.33;;
19358;SDS011;9815;52.334;20.890;2022-12-18T08:51:33;60.87;;;19.83;;
19358;SDS011;9815;52.334;20.890;2022-12-18T08:54:02;63.17;;;19.87;;
19358;SDS011;9815;52.334;20.890;2022-12-18T08:56:33;55.27;;;18.97;;
19358;SDS011;9815;52.334;20.890;2022-12-18T08:59:01;54.70;;;18.47;;
19358;SDS011;9815;52.334;20.890;2022-12-18T09:01:30;52.17;;;19.50;;
19358;SDS011;9815;52.334;20.890;2022-12-18T09:04:00;55.27;;;19.10;;
19358;SDS011;9815;52.334;20.890;2022-12-18T09:06:29;56.23;;;18.57;;
19358;SDS011;9815;52.334;20.890;2022-12-18T09:08:58;52.17;;;19.23;;
19358;SDS011;9815;52.334;20.890;2022-12-18T09:11:27;49.43;;;17.07;;
19358;SDS011;9815;52.334;20.890;2022-12-18T09:13:57;54.13;;;17.80;;
19358;SDS011;9815;52.334;20.890;2022-12-18T09:16:27;52.60;;;18.63;;
19358;SDS011;9815;52.334;20.890;2022-12-18T09:18:58;52.90;;;16.63;;
19358;SDS011;9815;52.334;20.890;2022-12-18T09:21:27;63.20;;;18.47;;
19358;SDS011;9815;52.334;20.890;2022-12-18T09:23:57;61.07;;;18.43;;
19358;SDS011;9815;52.334;20.890;2022-12-18T09:26:26;54.00;;;18.93;;
19358;SDS011;9815;52.334;20.890;2022-12-18T09:28:54;57.43;;;19.07;;
19358;SDS011;9815;52.334;20.890;2022-12-18T09:31:24;59.97;;;19.83;;
19358;SDS011;9815;52.334;20.890;2022-12-18T09:33:52;52.83;;;19.60;;
19358;SDS011;9815;52.334;20.890;2022-12-18T09:36:21;52.07;;;18.87;;
19358;SDS011;9815;52.334;20.890;2022-12-18T09:38:49;57.27;;;20.07;;
19358;SDS011;9815;52.334;20.890;2022-12-18T09:41:22;60.70;;;20.23;;
19358;SDS011;9815;52.334;20.890;2022-12-18T09:44:10;57.97;;;20.30;;
19358;SDS011;9815;52.334;20.890;2022-12-18T09:46:47;63.97;;;20.93;;
19358;SDS011;9815;52.334;20.890;2022-12-18T09:49:24;63.47;;;20.40;;
19358;SDS011;9815;52.334;20.890;2022-12-18T09:51:56;58.57;;;21.13;;
19358;SDS011;9815;52.334;20.890;2022-12-18T09:54:30;56.83;;;20.23;;
19358;SDS011;9815;52.334;20.890;2022-12-18T09:57:00;58.43;;;20.03;;
19358;SDS011;9815;52.334;20.890;2022-12-18T09:59:30;51.83;;;19.10;;
19358;SDS011;9815;52.334;20.890;2022-12-18T10:02:10;58.07;;;19.43;;
19358;SDS011;9815;52.334;20.890;2022-12-18T10:04:42;52.60;;;18.87;;
19358;SDS011;9815;52.334;20.890;2022-12-18T10:07:13;52.37;;;19.73;;
19358;SDS011;9815;52.334;20.890;2022-12-18T10:09:47;43.43;;;18.83;;
19358;SDS011;9815;52.334;20.890;2022-12-18T10:12:22;59.47;;;24.07;;
19358;SDS011;9815;52.334;20.890;2022-12-18T10:14:56;53.83;;;19.47;;
19358;SDS011;9815;52.334;20.890;2022-12-18T10:17:32;54.37;;;19.90;;
19358;SDS011;9815;52.334;20.890;2022-12-18T10:20:09;49.63;;;18.57;;
19358;SDS011;9815;52.334;20.890;2022-12-18T10:22:43;45.97;;;19.03;;
19358;SDS011;9815;52.334;20.890;2022-12-18T10:25:21;53.10;;;20.30;;
19358;SDS011;9815;52.334;20.890;2022-12-18T10:27:53;55.90;;;21.13;;
19358;SDS011;9815;52.334;20.890;2022-12-18T10:30:25;56.23;;;20.83;;
19358;SDS011;9815;52.334;20.890;2022-12-18T10:32:58;56.10;;;20.57;;
19358;SDS011;9815;52.334;20.890;2022-12-18T10:35:29;55.67;;;22.63;;
19358;SDS011;9815;52.334;20.890;2022-12-18T10:38:01;59.37;;;21.40;;
19358;SDS011;9815;52.334;20.890;2022-12-18T10:40:32;53.93;;;20.37;;
19358;SDS011;9815;52.334;20.890;2022-12-18T10:43:16;52.73;;;20.23;;
19358;SDS011;9815;52.334;20.890;2022-12-18T10:45:59;53.60;;;20.40;;
19358;SDS011;9815;52.334;20.890;2022-12-18T10:48:33;59.23;;;21.37;;
19358;SDS011;9815;52.334;20.890;2022-12-18T10:51:03;53.13;;;19.87;;
19358;SDS011;9815;52.334;20.890;2022-12-18T10:53:39;51.23;;;19.60;;
19358;SDS011;9815;52.334;20.890;2022-12-18T10:56:09;56.93;;;21.03;;
19358;SDS011;9815;52.334;20.890;2022-12-18T10:58:38;57.50;;;20.20;;
19358;SDS011;9815;52.334;20.890;2022-12-18T11:01:08;49.13;;;17.47;;
19358;SDS011;9815;52.334;20.890;2022-12-18T11:03:40;54.37;;;19.27;;
19358;SDS011;9815;52.334;20.890;2022-12-18T11:06:11;56.13;;;20.00;;
19358;SDS011;9815;52.334;20.890;2022-12-18T11:08:42;56.73;;;21.20;;
19358;SDS011;9815;52.334;20.890;2022-12-18T11:11:15;48.30;;;19.27;;
19358;SDS011;9815;52.334;20.890;2022-12-18T11:13:51;55.17;;;20.83;;
19358;SDS011;9815;52.334;20.890;2022-12-18T11:16:29;65.13;;;20.43;;
19358;SDS011;9815;52.334;20.890;2022-12-18T11:21:58;57.77;;;20.30;;
19358;SDS011;9815;52.334;20.890;2022-12-18T11:24:28;51.60;;;19.03;;
19358;SDS011;9815;52.334;20.890;2022-12-18T11:27:40;53.97;;;19.70;;
19358;SDS011;9815;52.334;20.890;2022-12-18T11:30:20;52.87;;;20.27;;
19358;SDS011;9815;52.334;20.890;2022-12-18T11:32:50;53.10;;;19.43;;
19358;SDS011;9815;52.334;20.890;2022-12-18T11:35:23;60.33;;;20.97;;
19358;SDS011;9815;52.334;20.890;2022-12-18T11:38:02;55.30;;;20.07;;
19358;SDS011;9815;52.334;20.890;2022-12-18T11:40:38;56.97;;;19.93;;
19358;SDS011;9815;52.334;20.890;2022-12-18T11:43:09;67.23;;;22.07;;
19358;SDS011;9815;52.334;20.890;2022-12-18T11:45:43;66.60;;;23.03;;
19358;SDS011;9815;52.334;20.890;2022-12-18T11:48:18;55.33;;;20.03;;
19358;SDS011;9815;52.334;20.890;2022-12-18T11:50:52;59.50;;;21.80;;
19358;SDS011;9815;52.334;20.890;2022-12-18T11:53:22;56.27;;;20.50;;
19358;SDS011;9815;52.334;20.890;2022-12-18T11:55:58;51.13;;;19.40;;
19358;SDS011;9815;52.334;20.890;2022-12-18T11:58:43;63.80;;;20.30;;
19358;SDS011;9815;52.334;20.890;2022-12-18T12:01:20;58.03;;;21.40;;
19358;SDS011;9815;52.334;20.890;2022-12-18T12:04:13;61.57;;;19.60;;
19358;SDS011;9815;52.334;20.890;2022-12-18T12:07:00;58.77;;;20.47;;
19358;SDS011;9815;52.334;20.890;2022-12-18T12:09:40;62.17;;;24.07;;
19358;SDS011;9815;52.334;20.890;2022-12-18T12:12:22;65.83;;;20.80;;
19358;SDS011;9815;52.334;20.890;2022-12-18T12:15:17;67.00;;;21.53;;
19358;SDS011;9815;52.334;20.890;2022-12-18T12:17:53;65.17;;;22.57;;
19358;SDS011;9815;52.334;20.890;2022-12-18T12:20:37;67.10;;;25.47;;
19358;SDS011;9815;52.334;20.890;2022-12-18T12:23:15;67.67;;;22.90;;
19358;SDS011;9815;52.334;20.890;2022-12-18T12:25:55;65.93;;;22.70;;
19358;SDS011;9815;52.334;20.890;2022-12-18T12:28:31;74.53;;;24.90;;
19358;SDS011;9815;52.334;20.890;2022-12-18T12:31:20;73.07;;;24.87;;
19358;SDS011;9815;52.334;20.890;2022-12-18T12:34:00;61.90;;;22.30;;
19358;SDS011;9815;52.334;20.890;2022-12-18T12:36:36;64.67;;;24.37;;
19358;SDS011;9815;52.334;20.890;2022-12-18T12:39:16;67.90;;;24.57;;
19358;SDS011;9815;52.334;20.890;2022-12-18T12:41:48;71.17;;;24.37;;
19358;SDS011;9815;52.334;20.890;2022-12-18T12:44:35;65.60;;;23.93;;
19358;SDS011;9815;52.334;20.890;2022-12-18T12:47:07;66.07;;;23.43;;
19358;SDS011;9815;52.334;20.890;2022-12-18T12:49:45;68.13;;;25.03;;
19358;SDS011;9815;52.334;20.890;2022-12-18T12:52:27;65.47;;;24.90;;
19358;SDS011;9815;52.334;20.890;2022-12-18T12:54:59;72.60;;;23.70;;
19358;SDS011;9815;52.334;20.890;2022-12-18T12:57:40;65.30;;;23.10;;
19358;SDS011;9815;52.334;20.890;2022-12-18T13:00:13;65.00;;;23.03;;
19358;SDS011;9815;52.334;20.890;2022-12-18T13:02:42;64.67;;;23.17;;
19358;SDS011;9815;52.334;20.890;2022-12-18T13:05:17;71.67;;;25.30;;
19358;SDS011;9815;52.334;20.890;2022-12-18T13:07:52;71.83;;;25.43;;
19358;SDS011;9815;52.334;20.890;2022-12-18T13:10:33;70.07;;;24.53;;
19358;SDS011;9815;52.334;20.890;2022-12-18T13:13:04;70.83;;;25.47;;
19358;SDS011;9815;52.334;20.890;2022-12-18T13:15:42;71.63;;;23.83;;
19358;SDS011;9815;52.334;20.890;2022-12-18T13:18:16;67.37;;;25.90;;
19358;SDS011;9815;52.334;20.890;2022-12-18T13:20:47;80.43;;;25.40;;
19358;SDS011;9815;52.334;20.890;2022-12-18T13:23:29;75.73;;;25.07;;
19358;SDS011;9815;52.334;20.890;2022-12-18T13:26:10;84.07;;;27.17;;
19358;SDS011;9815;52.334;20.890;2022-12-18T13:29:00;61.57;;;24.20;;
19358;SDS011;9815;52.334;20.890;2022-12-18T13:34:35;82.43;;;24.43;;
19358;SDS011;9815;52.334;20.890;2022-12-18T13:43:26;77.43;;;26.33;;
19358;SDS011;9815;52.334;20.890;2022-12-18T13:46:20;71.30;;;24.23;;
19358;SDS011;9815;52.334;20.890;2022-12-18T13:48:51;67.43;;;24.10;;
19358;SDS011;9815;52.334;20.890;2022-12-18T13:51:22;71.40;;;23.97;;
19358;SDS011;9815;52.334;20.890;2022-12-18T13:53:52;80.63;;;25.70;;
19358;SDS011;9815;52.334;20.890;2022-12-18T13:56:26;75.87;;;23.90;;
19358;SDS011;9815;52.334;20.890;2022-12-18T13:59:14;76.53;;;24.33;;
19358;SDS011;9815;52.334;20.890;2022-12-18T14:01:44;78.03;;;24.73;;
19358;SDS011;9815;52.334;20.890;2022-12-18T14:04:20;62.20;;;21.87;;
19358;SDS011;9815;52.334;20.890;2022-12-18T14:07:00;73.00;;;23.37;;
19358;SDS011;9815;52.334;20.890;2022-12-18T14:09:31;73.73;;;24.97;;
19358;SDS011;9815;52.334;20.890;2022-12-18T14:12:05;72.10;;;23.50;;
19358;SDS011;9815;52.334;20.890;2022-12-18T14:15:00;69.47;;;22.40;;
19358;SDS011;9815;52.334;20.890;2022-12-18T14:17:28;69.33;;;24.10;;
19358;SDS011;9815;52.334;20.890;2022-12-18T14:20:00;75.20;;;24.80;;
19358;SDS011;9815;52.334;20.890;2022-12-18T14:22:28;83.57;;;27.60;;
19358;SDS011;9815;52.334;20.890;2022-12-18T14:25:05;81.70;;;26.57;;
19358;SDS011;9815;52.334;20.890;2022-12-18T14:27:42;83.17;;;24.20;;
19358;SDS011;9815;52.334;20.890;2022-12-18T14:30:29;74.67;;;23.70;;
19358;SDS011;9815;52.334;20.890;2022-12-18T14:33:01;70.23;;;23.50;;
19358;SDS011;9815;52.334;20.890;2022-12-18T14:35:30;74.43;;;24.77;;
19358;SDS011;9815;52.334;20.890;2022-12-18T14:40:59;73.47;;;22.77;;
19358;SDS011;9815;52.334;20.890;2022-12-18T14:43:30;70.80;;;22.17;;
19358;SDS011;9815;52.334;20.890;2022-12-18T14:46:02;72.73;;;23.27;;
19358;SDS011;9815;52.334;20.890;2022-12-18T14:48:36;73.73;;;22.97;;
19358;SDS011;9815;52.334;20.890;2022-12-18T14:51:06;72.63;;;22.93;;
19358;SDS011;9815;52.334;20.890;2022-12-18T14:53:43;74.90;;;22.93;;
19358;SDS011;9815;52.334;20.890;2022-12-18T14:56:20;71.67;;;23.63;;
19358;SDS011;9815;52.334;20.890;2022-12-18T14:58:50;74.20;;;25.23;;
19358;SDS011;9815;52.334;20.890;2022-12-18T15:01:23;78.67;;;25.00;;
19358;SDS011;9815;52.334;20.890;2022-12-18T15:03:54;76.23;;;23.47;;
19358;SDS011;9815;52.334;20.890;2022-12-18T15:06:25;77.10;;;25.57;;
19358;SDS011;9815;52.334;20.890;2022-12-18T15:08:58;73.67;;;24.33;;